Manoel Urbano, Brazil
Current Conditions -  °F | °C
As of 3:00 AM on Sunday 23 Nov 2014 (Local Time) from SBRB Reporting Station
Clear Clear  
Wind Chill: 75°   Ceiling: Unl
Heat Index: 75°   Visibility: 6mi
Dew Point: 70°   Wind: 6mph
Humidity: 83%   Direction: 20°NNE
Pressure: 29.8"   Gusts: NA
Location:  8.84°S, 69.26°W
Report Text: SBRB 230700Z 02005KT CAVOK 24/21 Q1009
Loading
Personal Weather Stations






























Interactive Weather Map New forecast layout! Learn more

10-Day Weather Forecast

Advertisements
Track Severe Weather on mobile